Time;durP1;ratioP1;P1;durP2;ratioP2;P2;SDS_P1;SDS_P2;PMS_P1;PMS_P2;Temp;Humidity;BMP_temperature;BMP_pressure;BME280_temperature;BME280_humidity;BME280_pressure;Samples;Min_cycle;Max_cycle;Signal;HPM_P1;HPM_P2
2021/11/14 00:00:48;;;;;;;25.88;13.77;;;5.90;99.90;;;;;;4957392;29;20034;-67
2021/11/14 00:03:17;;;;;;;25.98;13.07;;;5.90;99.90;;;;;;4958424;29;20047;-68
2021/11/14 00:05:45;;;;;;;28.33;13.93;;;5.90;99.90;;;;;;4959099;28;20034;-68
2021/11/14 00:08:15;;;;;;;26.48;12.93;;;5.90;99.90;;;;;;4959226;29;20423;-68
2021/11/14 00:10:45;;;;;;;25.65;13.07;;;5.90;99.90;;;;;;4959948;29;20023;-67
2021/11/14 00:13:13;;;;;;;27.48;13.63;;;5.90;99.90;;;;;;4959260;28;20420;-68
2021/11/14 00:15:41;;;;;;;27.88;14.38;;;5.80;99.90;;;;;;4959772;29;20027;-67
2021/11/14 00:18:09;;;;;;;24.80;13.52;;;5.80;99.90;;;;;;4959223;29;20035;-67
2021/11/14 00:20:37;;;;;;;27.30;13.27;;;5.70;99.90;;;;;;4959309;28;20027;-68
2021/11/14 00:23:05;;;;;;;23.13;13.10;;;5.70;99.90;;;;;;4959159;29;20106;-68
2021/11/14 00:25:32;;;;;;;26.65;13.52;;;5.60;99.90;;;;;;4958998;28;20034;-68
2021/11/14 00:28:00;;;;;;;26.60;13.52;;;5.60;99.90;;;;;;4958690;29;20027;-68
2021/11/14 00:30:27;;;;;;;30.45;13.80;;;5.50;99.90;;;;;;4958783;29;20083;-67
2021/11/14 00:32:55;;;;;;;28.45;13.75;;;5.50;99.90;;;;;;4958178;29;20016;-68
2021/11/14 00:35:23;;;;;;;32.45;14.38;;;5.40;99.90;;;;;;4958254;28;20023;-67
2021/11/14 00:37:51;;;;;;;27.58;13.75;;;5.30;99.90;;;;;;4957091;29;20027;-68
2021/11/14 00:40:28;;;;;;;27.95;13.65;;;5.30;99.90;;;;;;4957236;29;20051;-68
2021/11/14 00:42:57;;;;;;;28.98;13.90;;;5.20;99.90;;;;;;4961022;28;20024;-68
2021/11/14 00:45:27;;;;;;;26.20;14.02;;;5.10;99.90;;;;;;4962103;29;20408;-68
2021/11/14 00:47:54;;;;;;;29.55;13.75;;;5.00;99.90;;;;;;4960697;29;20043;-68
2021/11/14 00:50:22;;;;;;;29.00;14.25;;;4.90;99.90;;;;;;4963201;28;20074;-68
2021/11/14 00:52:50;;;;;;;27.60;13.23;;;4.90;99.90;;;;;;4963199;29;20046;-68
2021/11/14 00:55:19;;;;;;;25.17;12.20;;;4.80;99.90;;;;;;4963277;29;20020;-67
2021/11/14 00:57:48;;;;;;;50.25;13.75;;;4.70;99.90;;;;;;4962623;29;20110;-67
2021/11/14 01:00:19;;;;;;;28.23;12.90;;;4.60;99.90;;;;;;4962585;29;20030;-67
2021/11/14 01:02:46;;;;;;;26.65;12.52;;;4.60;99.90;;;;;;4962480;28;20055;-67
2021/11/14 01:05:15;;;;;;;23.60;12.88;;;4.50;99.90;;;;;;4962535;28;20065;-67
2021/11/14 01:07:43;;;;;;;29.13;12.73;;;4.40;99.90;;;;;;4962381;28;20035;-67
2021/11/14 01:10:14;;;;;;;30.80;13.48;;;4.40;99.90;;;;;;4961160;29;20404;-68
2021/11/14 01:12:42;;;;;;;34.60;14.32;;;4.40;99.90;;;;;;4961424;28;20074;-67
2021/11/14 01:15:11;;;;;;;34.92;14.55;;;4.30;99.90;;;;;;4961351;29;20030;-67
2021/11/14 01:17:39;;;;;;;38.88;14.57;;;4.30;99.90;;;;;;4961339;28;20027;-68
2021/11/14 01:20:16;;;;;;;34.78;16.23;;;4.30;99.90;;;;;;4961270;28;20102;-68
2021/11/14 01:22:45;;;;;;;36.63;15.80;;;4.30;99.90;;;;;;4961209;29;20023;-67
2021/11/14 01:25:16;;;;;;;28.75;14.38;;;4.20;99.90;;;;;;4960118;29;20416;-67
2021/11/14 01:27:44;;;;;;;25.65;13.13;;;4.20;99.90;;;;;;4961400;29;20051;-67
2021/11/14 01:30:17;;;;;;;27.13;13.43;;;4.10;99.90;;;;;;4961203;29;20098;-67
2021/11/14 01:32:45;;;;;;;28.33;13.20;;;4.10;99.90;;;;;;4961893;28;20106;-68
2021/11/14 01:35:13;;;;;;;27.35;12.98;;;4.00;99.90;;;;;;4960818;28;20026;-68
2021/11/14 01:37:43;;;;;;;35.60;15.38;;;4.00;99.90;;;;;;4961821;29;20027;-67
2021/11/14 01:40:16;;;;;;;39.65;15.27;;;4.00;99.90;;;;;;4960931;29;20034;-68
2021/11/14 01:42:44;;;;;;;37.45;16.15;;;4.10;99.90;;;;;;4961699;29;20031;-67
2021/11/14 01:45:12;;;;;;;33.88;14.77;;;4.10;99.90;;;;;;4961718;29;20038;-67
2021/11/14 01:47:40;;;;;;;45.40;15.05;;;4.10;99.90;;;;;;4973701;28;20050;-68
2021/11/14 01:50:09;;;;;;;41.45;16.27;;;4.10;99.90;;;;;;4964037;28;20367;-68
2021/11/14 01:52:37;;;;;;;38.35;15.57;;;4.10;99.90;;;;;;4979778;28;20041;-68
2021/11/14 01:55:06;;;;;;;31.15;13.23;;;4.20;99.90;;;;;;4979264;28;20449;-68
2021/11/14 01:57:34;;;;;;;32.13;12.48;;;4.20;99.90;;;;;;4962741;28;20143;-68
2021/11/14 02:00:01;;;;;;;44.85;14.02;;;4.20;99.90;;;;;;4979955;28;20110;-68
2021/11/14 02:02:28;;;;;;;36.88;12.88;;;4.20;99.90;;;;;;4962764;28;20039;-68
2021/11/14 02:04:56;;;;;;;38.83;12.68;;;4.20;99.90;;;;;;4980053;28;20015;-68
2021/11/14 02:07:25;;;;;;;27.02;11.77;;;4.20;99.90;;;;;;4979523;28;20046;-67
2021/11/14 02:09:53;;;;;;;58.20;11.95;;;4.20;99.90;;;;;;4979745;28;20105;-67
2021/11/14 02:12:20;;;;;;;48.60;12.38;;;4.20;99.90;;;;;;4979517;28;20019;-67
2021/11/14 02:14:47;;;;;;;58.00;11.75;;;4.20;99.90;;;;;;4980060;28;20034;-68
2021/11/14 02:17:15;;;;;;;82.18;13.82;;;4.10;99.90;;;;;;4980465;28;20086;-68
2021/11/14 02:19:48;;;;;;;84.15;15.18;;;4.10;99.90;;;;;;4980492;28;20038;-68
2021/11/14 02:22:16;;;;;;;73.97;13.70;;;4.10;99.90;;;;;;4980363;28;20027;-68
2021/11/14 02:24:44;;;;;;;88.32;14.50;;;4.10;99.90;;;;;;4980527;28;20034;-68
2021/11/14 02:27:12;;;;;;;80.75;16.20;;;4.20;99.90;;;;;;4963732;28;20407;-67
2021/11/14 02:29:41;;;;;;;63.83;13.93;;;4.20;99.90;;;;;;4963010;28;20608;-67
2021/11/14 02:32:08;;;;;;;136.18;18.35;;;4.20;99.90;;;;;;4980175;28;20019;-68
2021/11/14 02:34:36;;;;;;;81.80;13.40;;;4.30;99.90;;;;;;4963191;28;20046;-68
2021/11/14 02:37:03;;;;;;;90.50;15.25;;;4.30;99.90;;;;;;4979340;28;20015;-68
2021/11/14 02:39:31;;;;;;;215.43;21.90;;;4.30;99.90;;;;;;4979078;28;20031;-67
2021/11/14 02:41:59;;;;;;;177.68;21.85;;;4.30;99.90;;;;;;4979019;28;20045;-68
2021/11/14 02:44:27;;;;;;;102.97;17.13;;;4.30;99.90;;;;;;4979143;28;20065;-68
2021/11/14 02:46:56;;;;;;;79.53;13.70;;;4.40;99.90;;;;;;4979198;28;20043;-68
2021/11/14 02:49:23;;;;;;;85.15;14.85;;;4.40;99.90;;;;;;4978849;28;20047;-68
2021/11/14 02:51:51;;;;;;;128.20;15.35;;;4.40;99.90;;;;;;4978965;28;20414;-68
2021/11/14 02:54:18;;;;;;;76.97;14.00;;;4.40;99.90;;;;;;4979544;28;20107;-68
2021/11/14 02:56:45;;;;;;;94.28;14.25;;;4.40;99.90;;;;;;4962383;28;20019;-68
2021/11/14 02:59:14;;;;;;;48.00;12.75;;;4.40;99.90;;;;;;4979649;28;20027;-68
2021/11/14 03:01:45;;;;;;;41.17;13.32;;;4.40;99.90;;;;;;4979633;28;20430;-68
2021/11/14 03:04:17;;;;;;;42.00;13.07;;;4.40;99.90;;;;;;4979740;28;20035;-68
2021/11/14 03:06:45;;;;;;;33.55;12.77;;;4.40;99.90;;;;;;4979752;28;20093;-68
2021/11/14 03:09:12;;;;;;;34.17;12.60;;;4.50;99.90;;;;;;4979418;28;20030;-68
2021/11/14 03:11:40;;;;;;;50.00;12.85;;;4.50;99.90;;;;;;4963062;28;20027;-68
2021/11/14 03:14:08;;;;;;;51.65;13.65;;;4.50;99.90;;;;;;4979608;28;20073;-68
2021/11/14 03:16:36;;;;;;;40.80;12.88;;;4.50;99.90;;;;;;4962944;28;20019;-68
2021/11/14 03:19:04;;;;;;;26.58;11.75;;;4.50;99.90;;;;;;4978469;28;20031;-68
2021/11/14 03:21:32;;;;;;;32.80;11.20;;;4.40;99.90;;;;;;4979148;28;20331;-68
2021/11/14 03:24:01;;;;;;;36.28;12.70;;;4.50;99.90;;;;;;4978788;28;20051;-68
2021/11/14 03:26:28;;;;;;;30.15;12.38;;;4.50;99.90;;;;;;4961135;28;20038;-68
2021/11/14 03:28:55;;;;;;;20.75;10.13;;;4.50;99.90;;;;;;4978758;28;20399;-68
2021/11/14 03:31:27;;;;;;;18.70;10.93;;;4.50;99.90;;;;;;4978742;28;20315;-68
2021/11/14 03:33:56;;;;;;;26.77;11.80;;;4.40;99.90;;;;;;4978836;28;20066;-68
2021/11/14 03:36:24;;;;;;;23.70;11.45;;;4.50;99.90;;;;;;4978402;28;20026;-68
2021/11/14 03:38:57;;;;;;;24.10;12.00;;;4.40;99.90;;;;;;4978678;28;20045;-68
2021/11/14 03:41:28;;;;;;;24.30;12.38;;;4.50;99.90;;;;;;4978430;28;20054;-68
2021/11/14 03:43:56;;;;;;;23.90;12.02;;;4.40;99.90;;;;;;4979140;28;20109;-68
2021/11/14 03:46:24;;;;;;;24.75;12.68;;;4.40;99.90;;;;;;4978601;28;20038;-68
2021/11/14 03:48:56;;;;;;;25.27;12.25;;;4.50;99.90;;;;;;4978601;28;20490;-68
2021/11/14 03:51:24;;;;;;;23.67;12.55;;;4.40;99.90;;;;;;4979326;28;20026;-68
2021/11/14 03:53:53;;;;;;;21.63;11.82;;;4.40;99.90;;;;;;4978937;28;20106;-68
2021/11/14 03:56:20;;;;;;;22.63;11.63;;;4.40;99.90;;;;;;4978700;28;20031;-68
2021/11/14 03:58:48;;;;;;;25.23;11.48;;;4.50;99.90;;;;;;4961647;28;20050;-68
2021/11/14 04:01:20;;;;;;;23.05;12.25;;;4.50;99.90;;;;;;4961225;28;20027;-68
2021/11/14 04:03:50;;;;;;;22.70;12.15;;;4.50;99.90;;;;;;4978449;28;20034;-68
2021/11/14 04:06:18;;;;;;;21.15;11.60;;;4.50;99.90;;;;;;4977614;28;20348;-68
2021/11/14 04:08:46;;;;;;;21.00;10.75;;;4.50;99.90;;;;;;4977904;28;20190;-68
2021/11/14 04:11:15;;;;;;;23.67;12.13;;;4.50;99.90;;;;;;4960523;28;20034;-68
2021/11/14 04:13:46;;;;;;;21.27;10.68;;;4.50;99.90;;;;;;4977799;28;20154;-68
2021/11/14 04:16:13;;;;;;;20.83;11.30;;;4.50;99.90;;;;;;4978885;28;20074;-68
2021/11/14 04:18:41;;;;;;;20.05;11.30;;;4.50;99.90;;;;;;4984294;28;20050;-68
2021/11/14 04:21:08;;;;;;;20.13;10.85;;;4.50;99.90;;;;;;4950843;28;20035;-68
2021/11/14 04:23:38;;;;;;;22.33;11.38;;;4.50;99.90;;;;;;4984545;28;20026;-68
2021/11/14 04:26:07;;;;;;;21.42;11.18;;;4.50;99.90;;;;;;4985336;28;20034;-68
2021/11/14 04:28:35;;;;;;;20.30;10.88;;;4.50;99.90;;;;;;4984910;28;20030;-68
2021/11/14 04:31:04;;;;;;;18.95;9.90;;;4.50;99.90;;;;;;4984919;28;20327;-68
2021/11/14 04:33:32;;;;;;;18.85;10.48;;;4.60;99.90;;;;;;4985396;28;20030;-68
2021/11/14 04:35:59;;;;;;;19.77;11.07;;;4.60;99.90;;;;;;4985114;28;20406;-68
2021/11/14 04:38:28;;;;;;;19.20;10.98;;;4.60;99.90;;;;;;4967630;28;20030;-68
2021/11/14 04:40:55;;;;;;;19.42;10.88;;;4.60;99.90;;;;;;4984894;28;20023;-68
2021/11/14 04:43:24;;;;;;;18.17;10.32;;;4.70;99.90;;;;;;4984720;28;20027;-68
2021/11/14 04:45:52;;;;;;;19.00;11.10;;;4.70;99.90;;;;;;4983962;28;20323;-68
2021/11/14 04:48:20;;;;;;;18.23;11.02;;;4.70;99.90;;;;;;4963174;28;20114;-68
2021/11/14 04:50:48;;;;;;;18.13;10.43;;;4.60;99.90;;;;;;4964986;28;20022;-68
2021/11/14 04:53:16;;;;;;;17.17;10.52;;;4.70;99.90;;;;;;4964709;29;20311;-68
2021/11/14 04:55:44;;;;;;;18.85;10.30;;;4.60;99.90;;;;;;4964647;29;20023;-68
2021/11/14 04:58:13;;;;;;;18.60;9.40;;;4.70;99.90;;;;;;4964921;29;20467;-68
2021/11/14 05:00:51;;;;;;;14.95;9.60;;;4.70;99.90;;;;;;4964470;28;20471;-68
2021/11/14 05:03:20;;;;;;;18.95;10.32;;;4.70;99.90;;;;;;4964576;28;20024;-68
2021/11/14 05:05:48;;;;;;;18.05;9.75;;;4.70;99.90;;;;;;4964452;28;20023;-68
2021/11/14 05:08:15;;;;;;;17.45;9.82;;;4.70;99.90;;;;;;4964785;28;20028;-68
2021/11/14 05:10:46;;;;;;;17.27;9.88;;;4.70;99.90;;;;;;4965228;28;20019;-68
2021/11/14 05:13:14;;;;;;;15.55;9.55;;;4.70;99.90;;;;;;4965050;28;20027;-68
2021/11/14 05:15:41;;;;;;;17.73;10.52;;;4.80;99.90;;;;;;4964203;28;20031;-68
2021/11/14 05:18:08;;;;;;;21.10;10.60;;;4.80;99.90;;;;;;4965156;28;20035;-68
2021/11/14 05:20:37;;;;;;;18.52;10.30;;;4.80;99.90;;;;;;4965248;28;20051;-68
2021/11/14 05:23:04;;;;;;;18.80;10.77;;;4.80;99.90;;;;;;4965077;29;20023;-68
2021/11/14 05:25:33;;;;;;;15.93;9.85;;;4.80;99.90;;;;;;4965126;29;20074;-68
2021/11/14 05:28:00;;;;;;;18.38;9.70;;;4.80;99.90;;;;;;4962191;28;20023;-68
2021/11/14 05:30:27;;;;;;;16.83;9.88;;;4.80;99.90;;;;;;4961313;28;20026;-68
2021/11/14 05:32:55;;;;;;;18.60;9.55;;;4.80;99.90;;;;;;4961637;28;20020;-68
2021/11/14 05:35:22;;;;;;;16.45;9.30;;;4.80;99.90;;;;;;4961019;28;20420;-68
2021/11/14 05:37:50;;;;;;;16.60;9.60;;;4.80;99.90;;;;;;4961269;28;20106;-68
2021/11/14 05:40:17;;;;;;;15.98;9.50;;;4.80;99.90;;;;;;4960056;29;20023;-68
2021/11/14 05:42:45;;;;;;;16.83;9.98;;;4.80;99.90;;;;;;4960940;29;20030;-68
2021/11/14 05:45:12;;;;;;;17.52;8.80;;;4.90;99.90;;;;;;4960803;28;20024;-68
2021/11/14 05:47:39;;;;;;;17.98;9.48;;;4.90;99.90;;;;;;4959715;29;20131;-68
2021/11/14 05:50:10;;;;;;;14.90;9.30;;;4.90;99.90;;;;;;4961118;28;20102;-68
2021/11/14 05:52:38;;;;;;;19.95;11.15;;;4.90;99.90;;;;;;4962051;28;20023;-68
2021/11/14 05:55:07;;;;;;;13.20;8.52;;;4.90;99.90;;;;;;4960621;29;20025;-68
2021/11/14 06:00:19;;;;;;;19.17;9.95;;;5.00;99.90;;;;;;4961938;28;20024;-68
2021/11/14 06:02:55;;;;;;;16.08;8.98;;;4.90;99.90;;;;;;4961316;28;20059;-68
2021/11/14 06:05:25;;;;;;;19.00;9.50;;;4.90;99.90;;;;;;4961297;28;20457;-67
2021/11/14 06:07:53;;;;;;;16.42;9.10;;;4.90;99.90;;;;;;4961205;28;20063;-67
2021/11/14 06:10:20;;;;;;;15.40;9.02;;;4.90;99.90;;;;;;4961768;28;20430;-67
2021/11/14 06:12:49;;;;;;;16.48;8.80;;;4.90;99.90;;;;;;4960911;29;20027;-67
2021/11/14 06:15:20;;;;;;;17.25;9.13;;;4.90;99.90;;;;;;4960393;28;20026;-67
2021/11/14 06:17:48;;;;;;;17.60;9.50;;;4.90;99.90;;;;;;4960764;28;20023;-68
2021/11/14 06:20:17;;;;;;;15.27;9.27;;;5.00;99.90;;;;;;4959285;28;20046;-67
2021/11/14 06:22:45;;;;;;;15.20;9.25;;;5.00;99.90;;;;;;4960241;28;20031;-67
2021/11/14 06:25:13;;;;;;;18.73;10.13;;;5.00;99.90;;;;;;4960059;28;20023;-68
2021/11/14 06:27:41;;;;;;;16.92;9.82;;;5.00;99.90;;;;;;4958928;29;20038;-67
2021/11/14 06:30:11;;;;;;;15.82;8.98;;;5.00;99.90;;;;;;4958981;29;20023;-67
2021/11/14 06:32:39;;;;;;;17.20;9.23;;;5.00;99.90;;;;;;4960002;28;20015;-69
2021/11/14 06:35:08;;;;;;;16.33;8.77;;;5.00;99.90;;;;;;4961592;28;20345;-66
2021/11/14 06:37:36;;;;;;;17.00;10.35;;;5.10;99.90;;;;;;4960759;29;20031;-67
2021/11/14 06:40:05;;;;;;;18.88;9.45;;;5.10;99.90;;;;;;4960323;28;20047;-67
2021/11/14 06:42:32;;;;;;;17.02;9.30;;;5.10;99.90;;;;;;4960748;29;20023;-67
2021/11/14 06:45:00;;;;;;;17.77;9.90;;;5.10;99.90;;;;;;4960850;28;20319;-67
2021/11/14 06:47:27;;;;;;;16.88;8.88;;;5.10;99.90;;;;;;4970786;28;20138;-68
2021/11/14 06:49:55;;;;;;;21.35;10.05;;;5.10;99.90;;;;;;4962637;28;20069;-68
2021/11/14 06:52:23;;;;;;;16.30;9.32;;;5.10;99.90;;;;;;4980279;28;20015;-67
2021/11/14 06:54:52;;;;;;;17.75;9.57;;;5.10;99.90;;;;;;4979603;28;20054;-74
2021/11/14 06:57:20;;;;;;;17.90;9.35;;;5.20;99.90;;;;;;4978785;28;20054;-73
2021/11/14 06:59:48;;;;;;;20.27;9.73;;;5.20;99.90;;;;;;4961623;28;20061;-73
2021/11/14 07:02:16;;;;;;;19.05;10.75;;;5.20;99.90;;;;;;4979021;28;20027;-79
2021/11/14 07:04:43;;;;;;;21.88;11.52;;;5.20;99.90;;;;;;4978822;28;20162;-73
2021/11/14 07:07:11;;;;;;;21.33;10.77;;;5.30;99.90;;;;;;4979146;28;20023;-73
2021/11/14 07:09:38;;;;;;;25.25;11.93;;;5.30;99.90;;;;;;4978571;28;20037;-75
2021/11/14 07:12:06;;;;;;;20.45;10.90;;;5.30;99.90;;;;;;4978587;28;20053;-74
2021/11/14 07:14:33;;;;;;;21.17;11.00;;;5.40;99.90;;;;;;4978770;28;20106;-74
2021/11/14 07:17:01;;;;;;;23.27;11.20;;;5.40;99.90;;;;;;4978878;28;20019;-76
2021/11/14 07:19:28;;;;;;;21.58;10.80;;;5.40;99.90;;;;;;4979595;28;20035;-76
2021/11/14 07:21:57;;;;;;;19.35;11.50;;;5.40;99.90;;;;;;4979597;28;20022;-77
2021/11/14 07:24:25;;;;;;;21.67;11.45;;;5.50;99.90;;;;;;4962518;28;20369;-76
2021/11/14 07:26:52;;;;;;;21.85;11.13;;;5.50;99.90;;;;;;4962033;28;20027;-76
2021/11/14 07:29:19;;;;;;;21.83;11.48;;;5.50;99.90;;;;;;4979627;28;20307;-83
2021/11/14 07:31:47;;;;;;;17.65;9.63;;;5.60;99.90;;;;;;4977524;28;20023;-83
2021/11/14 07:34:15;;;;;;;22.27;11.13;;;5.60;99.90;;;;;;4962272;28;20375;-80
2021/11/14 07:36:42;;;;;;;18.35;10.23;;;5.60;99.90;;;;;;4961620;28;20026;-80
2021/11/14 07:39:11;;;;;;;19.13;10.38;;;5.70;99.90;;;;;;4978329;28;20055;-74
2021/11/14 07:41:38;;;;;;;17.05;10.30;;;5.70;99.90;;;;;;4978593;28;20034;-80
2021/11/14 07:44:05;;;;;;;19.50;9.82;;;5.70;99.90;;;;;;4960811;28;20030;-79
2021/11/14 07:46:33;;;;;;;17.88;9.27;;;5.80;99.90;;;;;;4977903;28;20153;-72
2021/11/14 07:49:00;;;;;;;17.05;9.82;;;5.80;99.90;;;;;;4977820;28;20113;-71
2021/11/14 07:51:28;;;;;;;19.30;10.27;;;5.80;99.90;;;;;;4977060;28;20077;-71
2021/11/14 07:53:55;;;;;;;17.40;10.38;;;5.80;99.90;;;;;;4978262;28;20027;-70
2021/11/14 07:56:22;;;;;;;18.60;10.43;;;5.90;99.90;;;;;;4978209;28;20043;-73
2021/11/14 07:58:50;;;;;;;19.98;10.15;;;6.00;99.90;;;;;;4977871;28;20424;-69
2021/11/14 08:01:18;;;;;;;18.92;8.65;;;6.00;99.90;;;;;;4978546;28;20459;-68
2021/11/14 08:03:45;;;;;;;16.60;8.60;;;6.10;99.90;;;;;;4961629;28;20041;-68
2021/11/14 08:06:12;;;;;;;15.65;9.18;;;6.10;99.90;;;;;;4979024;28;20318;-68
2021/11/14 08:08:43;;;;;;;14.40;8.85;;;6.20;99.90;;;;;;4978825;28;20031;-68
2021/11/14 08:11:11;;;;;;;16.48;9.82;;;6.20;99.90;;;;;;4978508;28;20023;-68
2021/11/14 08:13:39;;;;;;;16.67;8.98;;;6.30;99.90;;;;;;4979167;28;20027;-68
2021/11/14 08:16:07;;;;;;;17.33;8.77;;;6.30;99.90;;;;;;4961556;28;20462;-68
2021/11/14 08:18:34;;;;;;;16.50;8.63;;;6.40;99.90;;;;;;4961417;28;20030;-68
2021/11/14 08:21:02;;;;;;;14.88;8.25;;;6.40;99.90;;;;;;4977581;28;20027;-68
2021/11/14 08:23:30;;;;;;;16.45;9.50;;;6.50;99.90;;;;;;4977732;28;20082;-68
2021/11/14 08:25:58;;;;;;;18.95;10.05;;;6.50;99.90;;;;;;4977822;28;20023;-68
2021/11/14 08:28:25;;;;;;;18.95;10.73;;;6.60;99.90;;;;;;4977444;28;20029;-68
2021/11/14 08:30:54;;;;;;;21.50;10.45;;;6.60;99.90;;;;;;4977417;28;20030;-69
2021/11/14 08:33:21;;;;;;;17.02;10.30;;;6.70;99.90;;;;;;4977751;28;20366;-69
2021/11/14 08:35:48;;;;;;;18.85;9.93;;;6.70;99.90;;;;;;4960256;28;20026;-69
2021/11/14 08:38:16;;;;;;;18.40;10.13;;;6.80;99.90;;;;;;4960414;28;20037;-68
2021/11/14 08:40:44;;;;;;;16.90;10.82;;;6.90;99.90;;;;;;4977408;28;20027;-68
2021/11/14 08:43:11;;;;;;;18.77;10.88;;;6.90;99.90;;;;;;4978596;28;20289;-74
2021/11/14 08:45:38;;;;;;;21.63;11.05;;;7.00;99.90;;;;;;4961124;28;20031;-68
2021/11/14 08:48:06;;;;;;;22.35;11.77;;;7.00;99.90;;;;;;4978007;28;20046;-69
2021/11/14 08:50:34;;;;;;;23.02;13.45;;;7.00;99.90;;;;;;4978178;28;20023;-69
2021/11/14 08:53:02;;;;;;;25.67;12.88;;;7.10;99.90;;;;;;4978431;28;20486;-69
2021/11/14 08:55:31;;;;;;;23.75;13.57;;;7.10;99.90;;;;;;4978653;28;20038;-69
2021/11/14 08:58:00;;;;;;;26.67;13.80;;;7.20;99.90;;;;;;4978182;28;20034;-69
2021/11/14 09:00:32;;;;;;;23.70;12.45;;;7.20;99.90;;;;;;4978738;28;20027;-69
2021/11/14 09:03:01;;;;;;;29.25;14.30;;;7.20;99.90;;;;;;4979147;28;20019;-69
2021/11/14 09:05:31;;;;;;;27.63;13.93;;;7.30;99.90;;;;;;4981150;28;20447;-69
2021/11/14 09:08:05;;;;;;;25.42;14.00;;;7.40;99.90;;;;;;4980854;28;20066;-69
2021/11/14 09:10:35;;;;;;;25.88;12.95;;;7.40;99.90;;;;;;4980840;28;20057;-69
2021/11/14 09:13:04;;;;;;;27.85;14.68;;;7.40;99.90;;;;;;4980795;28;20077;-69
2021/11/14 09:15:33;;;;;;;30.48;15.25;;;7.50;99.90;;;;;;4980706;28;20050;-69
2021/11/14 09:18:00;;;;;;;29.88;16.80;;;7.50;99.90;;;;;;4980735;28;20034;-68
2021/11/14 09:20:29;;;;;;;34.45;17.02;;;7.60;99.90;;;;;;4963659;28;20045;-68
2021/11/14 09:22:58;;;;;;;36.88;17.42;;;7.60;99.90;;;;;;4980536;28;20027;-69
2021/11/14 09:25:26;;;;;;;38.55;17.58;;;7.70;99.90;;;;;;4980699;28;20039;-69
2021/11/14 09:27:54;;;;;;;41.05;18.77;;;7.70;99.90;;;;;;4981312;28;20026;-69
2021/11/14 09:30:23;;;;;;;42.10;18.92;;;7.80;99.90;;;;;;4981452;28;20034;-69
2021/11/14 09:32:51;;;;;;;41.22;19.73;;;7.90;99.90;;;;;;4964136;28;20023;-69
2021/11/14 09:35:19;;;;;;;43.03;19.80;;;7.90;99.90;;;;;;4964267;28;20037;-69
2021/11/14 09:37:47;;;;;;;41.63;20.67;;;8.00;99.90;;;;;;4964084;28;20165;-69
2021/11/14 09:40:15;;;;;;;42.50;20.15;;;8.00;99.90;;;;;;4981203;28;20375;-69
2021/11/14 09:42:43;;;;;;;44.95;20.75;;;8.00;99.90;;;;;;4981156;28;20058;-69
2021/11/14 09:45:11;;;;;;;44.90;21.88;;;8.00;99.90;;;;;;4981099;28;20026;-69
2021/11/14 09:47:40;;;;;;;42.60;20.65;;;8.10;99.90;;;;;;4979885;28;20431;-69
2021/11/14 09:50:09;;;;;;;41.78;19.98;;;8.10;99.90;;;;;;4980539;28;20051;-69
2021/11/14 09:52:41;;;;;;;43.58;20.67;;;8.10;99.90;;;;;;4980769;28;20355;-69
2021/11/14 09:55:10;;;;;;;42.38;20.95;;;8.10;99.90;;;;;;4980689;28;20046;-69
2021/11/14 09:57:42;;;;;;;51.72;22.42;;;8.20;99.90;;;;;;4980213;28;20031;-70
2021/11/14 10:00:15;;;;;;;45.30;21.58;;;8.20;99.90;;;;;;4963475;28;20026;-71
2021/11/14 10:02:42;;;;;;;46.83;21.58;;;8.30;99.90;;;;;;4980451;28;20102;-71
2021/11/14 10:05:12;;;;;;;43.05;20.83;;;8.30;99.90;;;;;;4946684;28;20330;-68
2021/11/14 10:07:41;;;;;;;39.50;19.20;;;8.30;99.90;;;;;;4979785;28;20027;-69
2021/11/14 10:10:11;;;;;;;47.15;19.83;;;8.40;99.90;;;;;;4980589;28;20371;-69
2021/11/14 10:12:39;;;;;;;41.80;19.98;;;8.40;99.90;;;;;;4980432;28;20081;-68
2021/11/14 10:15:14;;;;;;;38.70;18.70;;;8.50;99.90;;;;;;4980078;28;20050;-69
2021/11/14 10:17:55;;;;;;;45.28;20.75;;;8.60;99.90;;;;;;4980361;28;20027;-68
2021/11/14 10:20:28;;;;;;;43.83;19.58;;;8.70;99.90;;;;;;4980215;28;20047;-68
2021/11/14 10:23:04;;;;;;;40.03;20.13;;;8.80;99.90;;;;;;4980397;28;20027;-68
2021/11/14 10:25:32;;;;;;;41.80;19.30;;;8.80;99.90;;;;;;4963510;28;20442;-68
2021/11/14 10:28:05;;;;;;;43.50;19.95;;;8.90;99.90;;;;;;4980204;28;20105;-69
2021/11/14 10:30:39;;;;;;;47.60;19.50;;;9.00;99.90;;;;;;4979366;28;20038;-69
2021/11/14 10:33:15;;;;;;;37.08;17.80;;;9.10;99.90;;;;;;4979172;28;20432;-69
2021/11/14 10:35:48;;;;;;;42.53;19.10;;;9.10;99.90;;;;;;4961999;28;20023;-69
2021/11/14 10:38:19;;;;;;;35.75;17.52;;;9.20;99.90;;;;;;4979194;28;20089;-69
2021/11/14 10:40:50;;;;;;;37.45;18.45;;;9.30;99.90;;;;;;4979547;28;20105;-68
2021/11/14 10:43:21;;;;;;;41.25;17.92;;;9.40;99.90;;;;;;4961981;28;20427;-69
2021/11/14 10:45:51;;;;;;;42.25;20.92;;;9.40;99.90;;;;;;4978891;28;20051;-68
2021/11/14 10:48:20;;;;;;;38.00;18.08;;;9.50;99.90;;;;;;4978636;28;20050;-68
2021/11/14 10:50:58;;;;;;;41.83;19.33;;;9.50;99.90;;;;;;4978826;28;20489;-69
2021/11/14 10:53:35;;;;;;;45.30;20.20;;;9.60;99.90;;;;;;4979687;28;20050;-69
2021/11/14 10:56:11;;;;;;;42.90;18.67;;;9.60;99.90;;;;;;4963221;28;20019;-69
2021/11/14 10:58:41;;;;;;;45.15;20.08;;;9.70;99.90;;;;;;4979775;28;20055;-69
2021/11/14 11:01:14;;;;;;;40.92;20.08;;;9.70;99.90;;;;;;4979558;28;20108;-68
2021/11/14 11:03:48;;;;;;;40.78;19.40;;;9.70;99.90;;;;;;4979786;28;20327;-69
2021/11/14 11:06:29;;;;;;;43.38;19.17;;;9.70;99.90;;;;;;4979491;28;20442;-69
2021/11/14 11:09:06;;;;;;;37.42;18.02;;;9.70;99.90;;;;;;4979432;28;20027;-68
2021/11/14 11:11:43;;;;;;;36.60;18.83;;;9.80;99.90;;;;;;4979314;28;20022;-68
2021/11/14 11:14:11;;;;;;;37.33;19.15;;;9.70;99.90;;;;;;4978457;28;20041;-70
2021/11/14 11:16:39;;;;;;;37.63;18.63;;;9.80;99.90;;;;;;4978397;28;20438;-70
2021/11/14 11:19:13;;;;;;;41.47;19.00;;;9.80;99.90;;;;;;4978425;28;20053;-70
2021/11/14 11:21:46;;;;;;;38.78;19.55;;;9.80;99.90;;;;;;4978925;28;20033;-70
2021/11/14 11:24:20;;;;;;;36.17;17.67;;;9.80;99.90;;;;;;4978440;28;20102;-71
2021/11/14 11:27:05;;;;;;;37.83;18.38;;;9.80;99.90;;;;;;4978235;28;20022;-70
2021/11/14 11:29:36;;;;;;;40.17;18.27;;;9.80;99.90;;;;;;4961125;28;20402;-68
2021/11/14 11:32:05;;;;;;;41.58;18.58;;;9.90;99.90;;;;;;4978136;28;20106;-70
2021/11/14 11:34:32;;;;;;;36.17;18.20;;;9.90;99.90;;;;;;4978352;28;20419;-71
2021/11/14 11:37:00;;;;;;;35.50;18.05;;;10.00;99.90;;;;;;4979466;28;20033;-69
2021/11/14 11:39:28;;;;;;;34.25;16.92;;;10.00;99.90;;;;;;4979173;28;20081;-69
2021/11/14 11:41:59;;;;;;;35.22;18.17;;;10.00;99.90;;;;;;4978950;28;20308;-69
2021/11/14 11:44:28;;;;;;;31.10;16.58;;;10.00;99.90;;;;;;4978976;28;20031;-68
2021/11/14 11:47:02;;;;;;;37.75;17.83;;;10.00;99.90;;;;;;4978791;28;20133;-71
2021/11/14 11:49:31;;;;;;;32.05;16.63;;;10.00;99.90;;;;;;4961698;28;20026;-69
2021/11/14 11:52:07;;;;;;;32.97;16.70;;;10.00;99.90;;;;;;4978888;28;20027;-71
2021/11/14 11:54:37;;;;;;;;;;;10.00;99.90;;;;;;4978835;28;20019;-70
2021/11/14 11:57:11;;;;;;;33.22;17.13;;;10.00;99.90;;;;;;4978164;28;19993;-71
2021/11/14 11:59:44;;;;;;;36.60;17.60;;;10.00;99.90;;;;;;4977977;28;20034;-70
2021/11/14 12:02:20;;;;;;;45.10;20.60;;;9.90;99.90;;;;;;4960532;28;20125;-69
2021/11/14 12:04:55;;;;;;;35.22;16.27;;;9.90;99.90;;;;;;4977683;28;20391;-71
2021/11/14 12:07:33;;;;;;;46.17;21.10;;;9.80;99.90;;;;;;4977571;28;20427;-71
2021/11/14 12:10:17;;;;;;;42.97;21.25;;;9.80;99.90;;;;;;4977641;28;20031;-69
2021/11/14 12:12:52;;;;;;;36.80;18.17;;;9.70;99.90;;;;;;4977550;28;20030;-68
2021/11/14 12:15:24;;;;;;;37.40;18.27;;;9.70;99.90;;;;;;4977598;28;20116;-69
2021/11/14 12:18:11;;;;;;;37.55;18.77;;;9.70;99.90;;;;;;4978129;28;20022;-69
2021/11/14 12:20:42;;;;;;;38.83;19.95;;;9.70;99.90;;;;;;4978496;28;20022;-69
2021/11/14 12:23:24;;;;;;;32.10;16.10;;;9.60;99.90;;;;;;4978667;28;20023;-69
2021/11/14 12:25:55;;;;;;;36.50;18.25;;;9.60;99.90;;;;;;4978370;28;20323;-69
2021/11/14 12:28:27;;;;;;;36.72;17.95;;;9.50;99.90;;;;;;4978279;28;20071;-69
2021/11/14 12:30:58;;;;;;;38.63;19.52;;;9.50;99.90;;;;;;4978367;28;20470;-69
2021/11/14 12:33:29;;;;;;;39.45;20.65;;;9.40;99.90;;;;;;4978212;28;20398;-69
2021/11/14 12:36:03;;;;;;;33.65;17.58;;;9.30;99.90;;;;;;4978322;28;20497;-69
2021/11/14 12:38:33;;;;;;;37.70;18.13;;;9.30;99.90;;;;;;4979545;28;20027;-70
2021/11/14 12:41:08;;;;;;;36.28;18.95;;;9.20;99.90;;;;;;4981837;28;20363;-70
2021/11/14 12:43:45;;;;;;;36.58;18.17;;;9.20;99.90;;;;;;4981959;28;20098;-68
2021/11/14 12:46:18;;;;;;;38.25;19.58;;;9.10;99.90;;;;;;4982303;28;20291;-69
2021/11/14 12:48:48;;;;;;;39.97;19.13;;;9.10;99.90;;;;;;4962299;28;20115;-70
2021/11/14 12:51:23;;;;;;;41.75;18.52;;;9.00;99.90;;;;;;4961962;28;20027;-71